Time;durP1;ratioP1;P1;durP2;ratioP2;P2;SDS_P1;SDS_P2;PMS_P1;PMS_P2;Temp;Humidity;BMP_temperature;BMP_pressure;BME280_temperature;BME280_humidity;BME280_pressure;Samples;Min_cycle;Max_cycle;Signal;HPM_P1;HPM_P2
2023/04/28 00:01:52;;;;;;;3.63;3.03;;;;;;;;;;5032310;28;20201;-32
2023/04/28 00:04:20;;;;;;;3.40;3.10;;;;;;;;;;5040352;28;20222;-29
2023/04/28 00:06:47;;;;;;;6.07;3.40;;;;;;;;;;5044931;28;20206;-33
2023/04/28 00:09:14;;;;;;;5.70;2.80;;;;;;;;;;5055187;28;20718;-33
2023/04/28 00:11:42;;;;;;;6.10;2.90;;;;;;;;;;5045858;28;20222;-30
2023/04/28 00:14:09;;;;;;;5.60;3.33;;;;;;;;;;5046442;28;20309;-33
2023/04/28 00:16:36;;;;;;;4.33;3.00;;;;;;;;;;5047374;28;20202;-32
2023/04/28 00:19:03;;;;;;;5.83;3.17;;;;;;;;;;5034219;28;20215;-33
2023/04/28 00:21:32;;;;;;;4.40;3.27;;;;;;;;;;5051425;28;20825;-32
2023/04/28 00:23:59;;;;;;;4.33;3.43;;;;;;;;;;5055895;28;20584;-34
2023/04/28 00:26:26;;;;;;;3.70;3.00;;;;;;;;;;5051962;28;20240;-30
2023/04/28 00:28:53;;;;;;;4.33;3.10;;;;;;;;;;5050519;28;20202;-31
2023/04/28 00:31:20;;;;;;;3.23;2.93;;;;;;;;;;5050266;28;20205;-33
2023/04/28 00:33:47;;;;;;;3.73;3.20;;;;;;;;;;5043629;28;20229;-33
2023/04/28 00:36:15;;;;;;;2.87;2.53;;;;;;;;;;5046806;28;20205;-33
2023/04/28 00:38:43;;;;;;;4.80;3.03;;;;;;;;;;5037115;28;20230;-33
2023/04/28 00:41:11;;;;;;;3.90;3.33;;;;;;;;;;5040745;28;20234;-31
2023/04/28 00:43:45;;;;;;;3.90;2.93;;;;;;;;;;5042065;28;20234;-29
2023/04/28 00:46:13;;;;;;;4.97;3.37;;;;;;;;;;5054925;28;20209;-32
2023/04/28 00:48:40;;;;;;;3.80;3.10;;;;;;;;;;5034454;28;20236;-31
2023/04/28 00:51:08;;;;;;;3.47;3.17;;;;;;;;;;5048212;28;20202;-31
2023/04/28 00:53:35;;;;;;;3.03;2.73;;;;;;;;;;5037617;28;20221;-31
2023/04/28 00:56:04;;;;;;;5.60;3.30;;;;;;;;;;5035342;28;20206;-34
2023/04/28 00:58:31;;;;;;;3.93;3.30;;;;;;;;;;5035534;28;20210;-32
2023/04/28 01:01:02;;;;;;;2.80;2.60;;;;;;;;;;5034503;28;20664;-32
2023/04/28 01:03:36;;;;;;;3.80;2.80;;;;;;;;;;5041898;28;20222;-32
2023/04/28 01:06:04;;;;;;;3.77;3.03;;;;;;;;;;5044877;28;20194;-33
2023/04/28 01:08:32;;;;;;;6.27;3.53;;;;;;;;;;5054112;28;20208;-32
2023/04/28 01:10:59;;;;;;;3.80;3.10;;;;;;;;;;5054894;28;20210;-33
2023/04/28 01:13:27;;;;;;;6.57;3.30;;;;;;;;;;5039173;28;20309;-31
2023/04/28 01:15:55;;;;;;;3.73;3.17;;;;;;;;;;5046030;28;20205;-32
2023/04/28 01:18:23;;;;;;;4.03;2.90;;;;;;;;;;5042731;28;20203;-33
2023/04/28 01:20:50;;;;;;;2.93;2.70;;;;;;;;;;5048079;28;20309;-32
2023/04/28 01:23:17;;;;;;;3.93;2.90;;;;;;;;;;5038682;28;20541;-34
2023/04/28 01:25:46;;;;;;;5.50;2.73;;;;;;;;;;5037161;28;20207;-34
2023/04/28 01:28:13;;;;;;;3.73;3.17;;;;;;;;;;5044622;28;20644;-32
2023/04/28 01:30:40;;;;;;;3.77;2.70;;;;;;;;;;5045918;28;20715;-34
2023/04/28 01:33:07;;;;;;;5.57;2.90;;;;;;;;;;5037259;28;20229;-32
2023/04/28 01:35:35;;;;;;;4.43;3.23;;;;;;;;;;5035987;28;20210;-31
2023/04/28 01:38:02;;;;;;;4.70;3.00;;;;;;;;;;5047083;28;20206;-34
2023/04/28 01:40:29;;;;;;;9.10;3.93;;;;;;;;;;5045691;28;20222;-35
2023/04/28 01:42:57;;;;;;;4.13;2.73;;;;;;;;;;5044452;28;20869;-34
2023/04/28 01:45:27;;;;;;;3.73;2.93;;;;;;;;;;5054188;28;20221;-32
2023/04/28 01:47:54;;;;;;;6.57;3.00;;;;;;;;;;5043517;28;20209;-33
2023/04/28 01:50:22;;;;;;;4.80;3.00;;;;;;;;;;5036897;28;20202;-32
2023/04/28 01:52:49;;;;;;;4.13;3.20;;;;;;;;;;5042018;28;20213;-31
2023/04/28 01:55:16;;;;;;;3.17;2.87;;;;;;;;;;5051901;28;20217;-30
2023/04/28 01:57:43;;;;;;;4.87;3.00;;;;;;;;;;5047679;28;20206;-32
2023/04/28 02:00:12;;;;;;;3.43;2.80;;;;;;;;;;5051734;28;20228;-33
2023/04/28 02:02:39;;;;;;;3.73;3.07;;;;;;;;;;5045225;28;20210;-31
2023/04/28 02:05:07;;;;;;;4.40;2.80;;;;;;;;;;5045134;28;20662;-29
2023/04/28 02:07:34;;;;;;;2.97;2.50;;;;;;;;;;5044642;28;20202;-32
2023/04/28 02:10:01;;;;;;;4.40;2.70;;;;;;;;;;5033980;28;20203;-33
2023/04/28 02:12:28;;;;;;;3.33;2.93;;;;;;;;;;5040827;28;20210;-33
2023/04/28 02:14:56;;;;;;;4.10;3.13;;;;;;;;;;5041912;28;20233;-33
2023/04/28 02:17:24;;;;;;;4.30;2.67;;;;;;;;;;5031846;28;20202;-30
2023/04/28 02:19:55;;;;;;;4.80;2.93;;;;;;;;;;5037434;28;20215;-31
2023/04/28 02:22:22;;;;;;;2.67;2.47;;;;;;;;;;5039933;28;20297;-34
2023/04/28 02:24:50;;;;;;;3.17;2.87;;;;;;;;;;5051879;28;20222;-34
2023/04/28 02:27:17;;;;;;;2.80;2.60;;;;;;;;;;5042368;28;20250;-32
2023/04/28 02:29:44;;;;;;;4.13;2.93;;;;;;;;;;5043203;28;20206;-32
2023/04/28 02:32:11;;;;;;;3.07;2.50;;;;;;;;;;5051267;28;20206;-31
2023/04/28 02:34:40;;;;;;;2.67;2.30;;;;;;;;;;5041746;28;20243;-31
2023/04/28 02:37:07;;;;;;;4.17;3.00;;;;;;;;;;5039426;28;20270;-30
2023/04/28 02:39:34;;;;;;;4.03;2.90;;;;;;;;;;5031545;28;20226;-34
2023/04/28 02:42:02;;;;;;;3.83;2.87;;;;;;;;;;5038499;28;20202;-33
2023/04/28 02:44:29;;;;;;;4.30;2.73;;;;;;;;;;5037830;28;20226;-33
2023/04/28 02:46:56;;;;;;;3.30;2.90;;;;;;;;;;5048743;28;20293;-32
2023/04/28 02:49:23;;;;;;;3.47;2.63;;;;;;;;;;5045286;28;20220;-31
2023/04/28 02:51:52;;;;;;;3.23;2.83;;;;;;;;;;5052392;28;20202;-33
2023/04/28 02:54:26;;;;;;;2.90;2.70;;;;;;;;;;5053177;28;20217;-32
2023/04/28 02:56:54;;;;;;;5.40;2.90;;;;;;;;;;5049200;28;20769;-33
2023/04/28 02:59:21;;;;;;;3.33;3.03;;;;;;;;;;5050678;28;20201;-32
2023/04/28 03:01:48;;;;;;;4.23;2.93;;;;;;;;;;5049709;28;20212;-35
2023/04/28 03:04:16;;;;;;;4.47;3.20;;;;;;;;;;5043063;28;20226;-34
2023/04/28 03:06:43;;;;;;;2.87;2.60;;;;;;;;;;5044469;28;20202;-32
2023/04/28 03:09:12;;;;;;;3.80;2.73;;;;;;;;;;5032776;28;20594;-32
2023/04/28 03:11:40;;;;;;;3.83;3.20;;;;;;;;;;5034648;28;20263;-34
2023/04/28 03:14:07;;;;;;;5.00;2.90;;;;;;;;;;5052735;28;20308;-30
2023/04/28 03:16:34;;;;;;;2.83;2.63;;;;;;;;;;5035792;28;20210;-31
2023/04/28 03:19:01;;;;;;;4.57;2.53;;;;;;;;;;5031105;28;20209;-32
2023/04/28 03:21:28;;;;;;;3.53;2.37;;;;;;;;;;5040235;28;20222;-31
2023/04/28 03:23:55;;;;;;;3.40;2.70;;;;;;;;;;5141753;22;20299;-32
2023/04/28 03:26:24;;;;;;;2.90;2.50;;;;;;;;;;5052768;28;20198;-32
2023/04/28 03:28:51;;;;;;;3.10;2.80;;;;;;;;;;5036323;28;20646;-30
2023/04/28 03:31:19;;;;;;;2.40;2.17;;;;;;;;;;5031498;28;20213;-31
2023/04/28 03:33:46;;;;;;;3.47;3.07;;;;;;;;;;5037131;28;20232;-31
2023/04/28 03:36:13;;;;;;;3.07;2.70;;;;;;;;;;5050308;28;20202;-33
2023/04/28 03:38:40;;;;;;;4.47;2.80;;;;;;;;;;5051715;28;20208;-29
2023/04/28 03:41:07;;;;;;;4.37;2.70;;;;;;;;;;5056765;28;20226;-31
2023/04/28 03:43:36;;;;;;;3.30;3.00;;;;;;;;;;5047563;28;20308;-31
2023/04/28 03:46:03;;;;;;;5.70;2.90;;;;;;;;;;5050364;28;20221;-29
2023/04/28 03:48:30;;;;;;;3.83;2.87;;;;;;;;;;5043219;28;20210;-33
2023/04/28 03:50:58;;;;;;;5.40;3.33;;;;;;;;;;5051514;28;20210;-35
2023/04/28 03:53:25;;;;;;;4.40;3.10;;;;;;;;;;5034898;28;20222;-35
2023/04/28 03:55:52;;;;;;;4.80;2.90;;;;;;;;;;5033745;28;20215;-32
2023/04/28 03:58:19;;;;;;;4.13;2.70;;;;;;;;;;5035650;28;20203;-31
2023/04/28 04:00:48;;;;;;;4.07;3.07;;;;;;;;;;5036024;28;20276;-29
2023/04/28 04:03:15;;;;;;;3.40;3.10;;;;;;;;;;5039483;28;20226;-30
2023/04/28 04:05:42;;;;;;;8.53;3.60;;;;;;;;;;5045825;28;20565;-32
2023/04/28 04:08:09;;;;;;;4.33;2.97;;;;;;;;;;5039289;28;20211;-32
2023/04/28 04:10:36;;;;;;;4.10;3.50;;;;;;;;;;5039677;28;20598;-34
2023/04/28 04:13:03;;;;;;;4.37;3.10;;;;;;;;;;5046150;28;20209;-33
2023/04/28 04:15:31;;;;;;;3.10;2.77;;;;;;;;;;5035594;28;20206;-31
2023/04/28 04:17:59;;;;;;;5.67;3.50;;;;;;;;;;5032772;28;20641;-34
2023/04/28 04:20:26;;;;;;;3.20;2.90;;;;;;;;;;5048031;28;20226;-29
2023/04/28 04:22:53;;;;;;;3.43;2.93;;;;;;;;;;5051114;28;20908;-32
2023/04/28 04:25:20;;;;;;;7.00;3.90;;;;;;;;;;5034838;28;20217;-33
2023/04/28 04:27:47;;;;;;;3.33;3.03;;;;;;;;;;5046432;28;20214;-30
2023/04/28 04:30:15;;;;;;;4.13;3.73;;;;;;;;;;5041541;28;20197;-32
2023/04/28 04:32:42;;;;;;;3.50;3.20;;;;;;;;;;5046652;28;20202;-28
2023/04/28 04:35:11;;;;;;;2.93;2.67;;;;;;;;;;5035394;28;20252;-33
2023/04/28 04:37:38;;;;;;;5.47;2.87;;;;;;;;;;5045096;28;20206;-32
2023/04/28 04:40:05;;;;;;;5.03;3.20;;;;;;;;;;5036955;28;20226;-31
2023/04/28 04:42:32;;;;;;;3.30;3.00;;;;;;;;;;5045906;28;20209;-29
2023/04/28 04:45:00;;;;;;;3.07;2.77;;;;;;;;;;5034316;28;20706;-29
2023/04/28 04:47:27;;;;;;;3.07;2.77;;;;;;;;;;5029765;28;20214;-31
2023/04/28 04:49:55;;;;;;;3.20;2.73;;;;;;;;;;5041985;28;20203;-32
2023/04/28 04:52:23;;;;;;;4.20;2.80;;;;;;;;;;5041917;28;20202;-31
2023/04/28 04:54:51;;;;;;;4.97;3.30;;;;;;;;;;5055407;28;20233;-33
2023/04/28 04:57:18;;;;;;;3.40;3.00;;;;;;;;;;5042777;28;20203;-29
2023/04/28 04:59:45;;;;;;;3.60;3.03;;;;;;;;;;5050093;28;20296;-31
2023/04/28 05:02:12;;;;;;;3.03;2.73;;;;;;;;;;5041544;28;20249;-30
2023/04/28 05:04:39;;;;;;;3.97;3.10;;;;;;;;;;5054236;28;20229;-32
2023/04/28 05:07:06;;;;;;;3.70;2.93;;;;;;;;;;5041121;28;20206;-29
2023/04/28 05:09:35;;;;;;;4.10;2.80;;;;;;;;;;5035273;28;20447;-32
2023/04/28 05:12:02;;;;;;;3.70;3.30;;;;;;;;;;5041877;28;20198;-32
2023/04/28 05:14:29;;;;;;;6.00;2.90;;;;;;;;;;5040665;28;20230;-34
2023/04/28 05:16:56;;;;;;;3.43;3.07;;;;;;;;;;5041590;28;20210;-30
2023/04/28 05:19:24;;;;;;;3.37;3.07;;;;;;;;;;5043092;28;20213;-31
2023/04/28 05:21:53;;;;;;;3.57;3.27;;;;;;;;;;5053431;28;20680;-30
2023/04/28 05:24:22;;;;;;;4.03;3.20;;;;;;;;;;5054498;28;20810;-30
2023/04/28 05:26:51;;;;;;;3.57;3.13;;;;;;;;;;5043245;28;20214;-31
2023/04/28 05:29:18;;;;;;;3.73;2.90;;;;;;;;;;5039391;28;20202;-31
2023/04/28 05:31:45;;;;;;;4.33;2.97;;;;;;;;;;5033108;28;20209;-32
2023/04/28 05:34:12;;;;;;;3.97;2.97;;;;;;;;;;5041674;28;20226;-34
2023/04/28 05:36:40;;;;;;;3.70;2.97;;;;;;;;;;5036654;28;20587;-32
2023/04/28 05:39:07;;;;;;;4.50;3.17;;;;;;;;;;5053182;28;20253;-30
2023/04/28 05:41:36;;;;;;;3.63;3.33;;;;;;;;;;5048070;28;20225;-31
2023/04/28 05:44:04;;;;;;;3.43;2.97;;;;;;;;;;5040553;28;20691;-32
2023/04/28 05:46:32;;;;;;;4.87;3.50;;;;;;;;;;5040769;28;20230;-32
2023/04/28 05:48:59;;;;;;;3.93;3.07;;;;;;;;;;5033119;28;20202;-29
2023/04/28 05:51:26;;;;;;;3.77;3.37;;;;;;;;;;5040209;28;20190;-31
2023/04/28 05:53:53;;;;;;;3.90;3.37;;;;;;;;;;5033771;28;20261;-33
2023/04/28 05:56:21;;;;;;;3.43;2.80;;;;;;;;;;5036656;28;20264;-33
2023/04/28 05:58:49;;;;;;;3.33;2.60;;;;;;;;;;5042166;28;20211;-32
2023/04/28 06:01:18;;;;;;;4.13;2.87;;;;;;;;;;5041011;28;20222;-33
2023/04/28 06:03:45;;;;;;;5.20;3.23;;;;;;;;;;5042889;28;20222;-29
2023/04/28 06:06:12;;;;;;;5.17;3.80;;;;;;;;;;5048034;28;20205;-29
2023/04/28 06:08:39;;;;;;;4.27;3.60;;;;;;;;;;5035541;28;20199;-33
2023/04/28 06:11:07;;;;;;;4.80;3.30;;;;;;;;;;5032609;28;20208;-32
2023/04/28 06:13:34;;;;;;;4.00;3.60;;;;;;;;;;5041226;28;20222;-29
2023/04/28 06:16:01;;;;;;;3.47;3.17;;;;;;;;;;5047238;28;20248;-30
2023/04/28 06:18:36;;;;;;;4.83;4.07;;;;;;;;;;5032598;28;20234;-30
2023/04/28 06:21:04;;;;;;;5.33;3.53;;;;;;;;;;5037806;28;20228;-33
2023/04/28 06:23:31;;;;;;;4.27;3.03;;;;;;;;;;5049658;28;20240;-32
2023/04/28 06:25:58;;;;;;;3.67;3.13;;;;;;;;;;5048213;28;20202;-30
2023/04/28 06:28:25;;;;;;;3.40;3.07;;;;;;;;;;5040017;28;20202;-30
2023/04/28 06:30:52;;;;;;;4.20;3.80;;;;;;;;;;5042844;28;20205;-32
2023/04/28 06:33:20;;;;;;;4.30;3.53;;;;;;;;;;5039112;28;20224;-30
2023/04/28 06:35:48;;;;;;;4.47;3.90;;;;;;;;;;5041901;28;20704;-34
2023/04/28 06:38:24;;;;;;;4.80;3.57;;;;;;;;;;5045823;28;20213;-30
2023/04/28 06:40:52;;;;;;;7.20;3.77;;;;;;;;;;5040945;28;20285;-29
2023/04/28 06:43:19;;;;;;;3.93;3.63;;;;;;;;;;5034058;28;20233;-33
2023/04/28 06:45:46;;;;;;;7.30;3.00;;;;;;;;;;5038175;28;20209;-34
2023/04/28 06:48:13;;;;;;;4.83;3.33;;;;;;;;;;5037968;28;20205;-30
2023/04/28 06:50:40;;;;;;;4.23;3.83;;;;;;;;;;5037539;28;20203;-32
2023/04/28 06:53:09;;;;;;;5.53;4.53;;;;;;;;;;5039665;28;20248;-31
2023/04/28 06:55:36;;;;;;;6.37;3.67;;;;;;;;;;5036789;28;20209;-32
2023/04/28 06:58:03;;;;;;;5.70;3.87;;;;;;;;;;5043902;28;20207;-29
2023/04/28 07:00:30;;;;;;;3.90;3.57;;;;;;;;;;5046497;28;20212;-29
2023/04/28 07:03:13;;;;;;;4.00;3.60;;;;;;;;;;5041112;28;20566;-31
2023/04/28 07:05:40;;;;;;;5.60;3.50;;;;;;;;;;5043531;28;20217;-30
2023/04/28 07:08:08;;;;;;;4.37;3.73;;;;;;;;;;5032817;28;20603;-30
2023/04/28 07:10:35;;;;;;;8.43;3.83;;;;;;;;;;5032838;28;20203;-29
2023/04/28 07:13:03;;;;;;;6.33;4.10;;;;;;;;;;5041147;28;20198;-32
2023/04/28 07:15:43;;;;;;;4.10;3.67;;;;;;;;;;5036167;28;20195;-31
2023/04/28 07:18:10;;;;;;;3.53;3.00;;;;;;;;;;5043398;28;20544;-31
2023/04/28 07:20:37;;;;;;;6.90;4.17;;;;;;;;;;5044006;28;20297;-32
2023/04/28 07:23:04;;;;;;;3.90;3.60;;;;;;;;;;5039452;28;20238;-30
2023/04/28 07:25:34;;;;;;;4.90;4.10;;;;;;;;;;5031762;28;20260;-33
2023/04/28 07:28:03;;;;;;;6.00;4.43;;;;;;;;;;5045272;28;20212;-31
2023/04/28 07:30:30;;;;;;;6.53;4.60;;;;;;;;;;5034894;28;20831;-29
2023/04/28 07:32:58;;;;;;;4.37;3.83;;;;;;;;;;5033096;28;20221;-32
2023/04/28 07:35:25;;;;;;;5.17;3.70;;;;;;;;;;5038517;28;20244;-30
2023/04/28 07:37:52;;;;;;;5.13;3.90;;;;;;;;;;5042064;28;20202;-29
2023/04/28 07:40:22;;;;;;;5.53;4.10;;;;;;;;;;5036909;28;20217;-34
2023/04/28 07:42:50;;;;;;;5.80;4.43;;;;;;;;;;5040768;28;20245;-33
2023/04/28 07:45:18;;;;;;;5.40;4.63;;;;;;;;;;5036047;28;20549;-29
2023/04/28 07:47:45;;;;;;;6.97;5.00;;;;;;;;;;5041030;28;20652;-31
2023/04/28 07:50:12;;;;;;;5.47;4.87;;;;;;;;;;5040062;28;20198;-29
2023/04/28 07:52:39;;;;;;;5.10;4.23;;;;;;;;;;5041373;28;20216;-32
2023/04/28 07:55:07;;;;;;;6.10;4.47;;;;;;;;;;5050267;28;20237;-31
2023/04/28 07:57:34;;;;;;;5.23;4.33;;;;;;;;;;5042386;28;20205;-30
2023/04/28 08:00:02;;;;;;;5.33;4.63;;;;;;;;;;5037067;28;20213;-29
2023/04/28 08:02:30;;;;;;;5.20;4.53;;;;;;;;;;5031292;28;20223;-31
2023/04/28 08:04:57;;;;;;;6.87;4.40;;;;;;;;;;5039848;28;20333;-30
2023/04/28 08:07:34;;;;;;;7.47;5.17;;;;;;;;;;5032465;28;20201;-31
2023/04/28 08:10:17;;;;;;;6.13;4.57;;;;;;;;;;5031588;28;20206;-31
2023/04/28 08:12:45;;;;;;;5.73;4.37;;;;;;;;;;5034496;28;20286;-30
2023/04/28 08:15:13;;;;;;;5.80;3.73;;;;;;;;;;5046233;28;20210;-31
2023/04/28 08:17:41;;;;;;;7.77;5.07;;;;;;;;;;5042096;28;20273;-27
2023/04/28 08:20:09;;;;;;;9.17;5.17;;;;;;;;;;5034572;28;20199;-30
2023/04/28 08:22:36;;;;;;;6.77;4.90;;;;;;;;;;5042899;28;20219;-34
2023/04/28 08:25:03;;;;;;;7.03;5.20;;;;;;;;;;5038383;28;20236;-31
2023/04/28 08:27:32;;;;;;;7.17;4.80;;;;;;;;;;5042798;28;20227;-30
2023/04/28 08:30:00;;;;;;;8.50;5.13;;;;;;;;;;5042722;28;20207;-32
2023/04/28 08:32:28;;;;;;;5.60;4.90;;;;;;;;;;5029202;28;20199;-30
2023/04/28 08:34:55;;;;;;;8.13;5.23;;;;;;;;;;5044531;28;20230;-30
2023/04/28 08:37:23;;;;;;;7.30;4.97;;;;;;;;;;5035127;28;20210;-33
2023/04/28 08:39:58;;;;;;;5.87;5.27;;;;;;;;;;5035512;28;20207;-30
2023/04/28 08:42:26;;;;;;;8.07;5.80;;;;;;;;;;5034311;28;20210;-32
2023/04/28 08:44:58;;;;;;;7.57;5.03;;;;;;;;;;5038205;28;20226;-32
2023/04/28 08:47:25;;;;;;;6.70;4.80;;;;;;;;;;5038126;28;20202;-30
2023/04/28 08:49:55;;;;;;;5.87;4.60;;;;;;;;;;5045032;28;20229;-31
2023/04/28 08:52:23;;;;;;;6.90;5.20;;;;;;;;;;5042401;28;20212;-32
2023/04/28 08:54:51;;;;;;;6.30;5.00;;;;;;;;;;5035887;28;20226;-30
2023/04/28 08:57:20;;;;;;;7.93;4.57;;;;;;;;;;5048746;28;20319;-32
2023/04/28 08:59:47;;;;;;;6.17;4.73;;;;;;;;;;5046173;28;20206;-33
2023/04/28 09:02:15;;;;;;;8.23;4.90;;;;;;;;;;5051283;28;20218;-30
2023/04/28 09:04:42;;;;;;;8.73;5.70;;;;;;;;;;5045169;28;20238;-30
2023/04/28 09:07:12;;;;;;;8.17;5.20;;;;;;;;;;5049110;28;20206;-32
2023/04/28 09:09:40;;;;;;;7.63;5.63;;;;;;;;;;5034907;28;20639;-34
2023/04/28 09:12:08;;;;;;;6.17;4.80;;;;;;;;;;5034538;28;20199;-31
2023/04/28 09:14:36;;;;;;;6.10;4.60;;;;;;;;;;5045104;28;20753;-30
2023/04/28 09:17:03;;;;;;;4.53;3.80;;;;;;;;;;5042446;28;20337;-32
2023/04/28 09:19:41;;;;;;;5.77;4.10;;;;;;;;;;5040731;28;20206;-30
2023/04/28 09:22:09;;;;;;;4.73;4.30;;;;;;;;;;5033961;28;20211;-32
2023/04/28 09:24:39;;;;;;;6.93;4.60;;;;;;;;;;5034318;28;20704;-31
2023/04/28 09:27:09;;;;;;;4.73;4.07;;;;;;;;;;5047999;28;20210;-30
2023/04/28 09:29:37;;;;;;;5.43;4.30;;;;;;;;;;5032446;28;20360;-31
2023/04/28 09:32:16;;;;;;;4.63;4.20;;;;;;;;;;5037596;28;22588;-31
2023/04/28 09:34:45;;;;;;;6.43;4.50;;;;;;;;;;5037435;28;20233;-31
2023/04/28 09:39:58;;;;;;;8.10;4.00;;;;;;;;;;5443563;22;20238;-26
2023/04/28 09:42:38;;;;;;;7.30;4.30;;;;;;;;;;5155430;22;20229;-28
2023/04/28 09:45:18;;;;;;;5.60;4.20;;;;;;;;;;5073504;28;20477;-30
2023/04/28 09:47:54;;;;;;;4.50;3.80;;;;;;;;;;5055205;28;20217;-32
2023/04/28 09:50:31;;;;;;;3.70;3.40;;;;;;;;;;5068522;28;20204;-31
2023/04/28 09:53:07;;;;;;;4.83;3.70;;;;;;;;;;5058674;28;20201;-30
2023/04/28 09:55:49;;;;;;;5.00;4.47;;;;;;;;;;5068297;28;20737;-31
2023/04/28 09:58:22;;;;;;;5.60;4.73;;;;;;;;;;5048905;28;20218;-28
2023/04/28 10:00:59;;;;;;;5.67;4.47;;;;;;;;;;5062300;28;20276;-30
2023/04/28 10:03:28;;;;;;;6.30;4.73;;;;;;;;;;5045980;28;20246;-28
2023/04/28 10:06:05;;;;;;;5.63;4.90;;;;;;;;;;5062899;28;20232;-29
2023/04/28 10:08:49;;;;;;;5.33;4.83;;;;;;;;;;5056209;28;20201;-31
2023/04/28 10:11:36;;;;;;;5.90;4.90;;;;;;;;;;5048697;28;20240;-29
2023/04/28 10:16:53;;;;;;;6.77;5.10;;;;;;;;;;5190900;22;20328;-35
2023/04/28 10:19:29;;;;;;;6.83;5.30;;;;;;;;;;5049870;28;20202;-35
2023/04/28 10:22:12;;;;;;;6.40;5.30;;;;;;;;;;5057929;28;20245;-41
2023/04/28 10:24:53;;;;;;;5.77;5.00;;;;;;;;;;5074030;28;20271;-34
2023/04/28 10:27:38;;;;;;;5.73;5.10;;;;;;;;;;5064788;28;20202;-38
2023/04/28 10:30:22;;;;;;;6.40;4.70;;;;;;;;;;5046662;28;20218;-36
2023/04/28 10:33:26;;;;;;;5.67;4.17;;;;;;;;;;5335506;22;20220;-34
2023/04/28 10:38:31;;;;;;;7.53;5.47;;;;;;;;;;5032687;28;20235;-28
2023/04/28 10:41:07;;;;;;;7.10;4.57;;;;;;;;;;5015099;28;20211;-31
2023/04/28 10:44:25;;;;;;;7.40;5.03;;;;;;;;;;5027653;28;20227;-27
2023/04/28 10:47:05;;;;;;;8.83;5.13;;;;;;;;;;5013538;28;20199;-30
2023/04/28 10:49:50;;;;;;;5.03;4.07;;;;;;;;;;5026383;28;20203;-31
2023/04/28 10:52:36;;;;;;;5.27;3.83;;;;;;;;;;5021138;28;20196;-29
2023/04/28 10:55:27;;;;;;;7.30;4.50;;;;;;;;;;5009322;28;20228;-28
2023/04/28 11:00:58;;;;;;;3.83;3.53;;;;;;;;;;5013685;28;20215;-29
2023/04/28 11:06:22;;;;;;;4.10;3.10;;;;;;;;;;5167663;22;20230;-28
2023/04/28 11:08:59;;;;;;;7.17;3.60;;;;;;;;;;5072699;28;20266;-29
2023/04/28 11:11:42;;;;;;;3.03;2.10;;;;;;;;;;5073515;28;20209;-27
2023/04/28 11:14:49;;;;;;;3.80;2.07;;;;;;;;;;5274883;22;21400;-37
2023/04/28 11:17:46;;;;;;;1.97;1.60;;;;;;;;;;5059262;28;20209;-35
2023/04/28 11:20:20;;;;;;;1.80;1.60;;;;;;;;;;5064815;28;20288;-38
2023/04/28 11:22:54;;;;;;;1.53;1.43;;;;;;;;;;5060826;28;20221;-37
2023/04/28 11:25:27;;;;;;;1.27;1.27;;;;;;;;;;5065930;28;20205;-38
2023/04/28 11:28:03;;;;;;;1.67;1.40;;;;;;;;;;5043003;28;20208;-40
2023/04/28 11:30:32;;;;;;;1.40;1.30;;;;;;;;;;5049303;28;20248;-35
2023/04/28 11:33:20;;;;;;;3.47;1.40;;;;;;;;;;5047761;28;20280;-40
2023/04/28 11:35:58;;;;;;;1.97;1.87;;;;;;;;;;5051576;28;20206;-35
2023/04/28 11:38:37;;;;;;;1.47;1.37;;;;;;;;;;5053352;28;20698;-39
2023/04/28 11:41:18;;;;;;;1.47;1.37;;;;;;;;;;5052698;28;20206;-38
2023/04/28 11:44:03;;;;;;;3.93;1.37;;;;;;;;;;5049705;28;20229;-40
2023/04/28 11:46:41;;;;;;;2.20;1.27;;;;;;;;;;5053098;28;20210;-39
2023/04/28 11:49:21;;;;;;;2.53;1.40;;;;;;;;;;5046452;28;20205;-38
2023/04/28 11:52:05;;;;;;;;;;;;;;;;;;;;;
2023/04/28 11:54:45;;;;;;;1.00;1.00;;;;;;;;;;5056954;28;20225;-35
2023/04/28 11:57:20;;;;;;;0.93;0.93;;;;;;;;;;5050777;28;20203;-37
2023/04/28 11:59:55;;;;;;;1.10;0.93;;;;;;;;;;5054292;28;20206;-31
2023/04/28 12:02:32;;;;;;;1.17;1.00;;;;;;;;;;5042772;28;20249;-38
2023/04/28 12:05:12;;;;;;;0.80;0.80;;;;;;;;;;5043184;28;20225;-35
2023/04/28 12:07:51;;;;;;;0.80;0.80;;;;;;;;;;5056536;28;20205;-34
2023/04/28 12:10:44;;;;;;;1.00;0.87;;;;;;;;;;5054792;28;20309;-36
2023/04/28 12:13:26;;;;;;;1.00;0.90;;;;;;;;;;5047786;28;20312;-32
2023/04/28 12:16:04;;;;;;;0.73;0.73;;;;;;;;;;5055627;28;20213;-36
2023/04/28 12:18:40;;;;;;;1.17;0.90;;;;;;;;;;5050969;28;20217;-35
2023/04/28 12:21:23;;;;;;;2.40;0.77;;;;;;;;;;5042226;28;20659;-34
2023/04/28 12:23:52;;;;;;;0.80;0.80;;;;;;;;;;5055770;28;20232;-38
2023/04/28 12:26:32;;;;;;;2.40;0.73;;;;;;;;;;5056025;28;20210;-33
2023/04/28 12:29:04;;;;;;;0.80;0.80;;;;;;;;;;5043857;28;20202;-34
2023/04/28 12:31:38;;;;;;;0.63;0.60;;;;;;;;;;5052643;28;20217;-32
2023/04/28 12:34:09;;;;;;;0.90;0.90;;;;;;;;;;5049058;28;20227;-36
2023/04/28 12:36:55;;;;;;;0.90;0.90;;;;;;;;;;5054549;28;20253;-31
2023/04/28 12:39:28;;;;;;;1.13;0.87;;;;;;;;;;5055750;28;20221;-37
2023/04/28 12:42:13;;;;;;;1.93;0.90;;;;;;;;;;5050501;28;20201;-33
2023/04/28 12:44:45;;;;;;;1.20;0.80;;;;;;;;;;5053855;28;20269;-39
2023/04/28 12:47:18;;;;;;;1.10;1.10;;;;;;;;;;5052782;28;20260;-42
2023/04/28 12:49:48;;;;;;;0.90;0.90;;;;;;;;;;5054434;28;20255;-38
2023/04/28 12:52:36;;;;;;;0.77;0.77;;;;;;;;;;5054959;28;20206;-38
2023/04/28 12:55:07;;;;;;;0.90;0.90;;;;;;;;;;5053862;28;20217;-37
2023/04/28 12:57:43;;;;;;;0.87;0.70;;;;;;;;;;5054705;28;20206;-36
2023/04/28 13:00:22;;;;;;;0.50;0.50;;;;;;;;;;5055519;28;20552;-31
2023/04/28 13:03:01;;;;;;;2.00;0.60;;;;;;;;;;5045294;28;20292;-39
2023/04/28 13:05:35;;;;;;;0.70;0.70;;;;;;;;;;5050590;28;20212;-35
2023/04/28 13:08:09;;;;;;;1.60;1.43;;;;;;;;;;5047742;28;20265;-37
2023/04/28 13:10:38;;;;;;;1.27;1.00;;;;;;;;;;5052500;28;20230;-35
2023/04/28 13:13:06;;;;;;;0.93;0.93;;;;;;;;;;5046385;28;20198;-34
2023/04/28 13:15:46;;;;;;;2.27;1.40;;;;;;;;;;5054555;28;20292;-32
2023/04/28 13:18:15;;;;;;;2.17;1.40;;;;;;;;;;5043322;28;20210;-36
2023/04/28 13:20:43;;;;;;;1.13;1.00;;;;;;;;;;5054457;28;20210;-38
2023/04/28 13:23:21;;;;;;;0.97;0.80;;;;;;;;;;5049240;28;20292;-40
2023/04/28 13:25:50;;;;;;;2.23;0.80;;;;;;;;;;5252683;22;20657;-35
2023/04/28 13:28:19;;;;;;;2.53;1.20;;;;;;;;;;5062741;28;20204;-36
2023/04/28 13:30:49;;;;;;;1.60;1.20;;;;;;;;;;5071641;28;20296;-38
2023/04/28 13:33:19;;;;;;;1.07;1.00;;;;;;;;;;5052321;28;20218;-34
2023/04/28 13:35:48;;;;;;;1.13;1.00;;;;;;;;;;5042438;28;20212;-34
2023/04/28 13:38:22;;;;;;;2.60;1.20;;;;;;;;;;5049401;28;20260;-40
2023/04/28 13:40:50;;;;;;;0.70;0.70;;;;;;;;;;5062132;22;20234;-30
2023/04/28 13:43:18;;;;;;;0.80;0.73;;;;;;;;;;5014799;28;20223;-30
2023/04/28 13:45:46;;;;;;;2.30;0.90;;;;;;;;;;5040732;28;20269;-30
2023/04/28 13:48:14;;;;;;;1.37;0.90;;;;;;;;;;5033369;28;20213;-29
2023/04/28 13:50:43;;;;;;;1.60;0.70;;;;;;;;;;5023121;28;20214;-28
2023/04/28 13:53:11;;;;;;;0.67;0.67;;;;;;;;;;5039735;28;20226;-29
2023/04/28 13:55:40;;;;;;;1.60;0.70;;;;;;;;;;5033263;28;20214;-28
2023/04/28 13:58:12;;;;;;;1.50;0.60;;;;;;;;;;5041152;28;20207;-27
2023/04/28 14:00:44;;;;;;;0.70;0.70;;;;;;;;;;5043545;28;20228;-28
2023/04/28 14:03:18;;;;;;;0.80;0.80;;;;;;;;;;5060061;22;20246;-28
2023/04/28 14:05:46;;;;;;;4.70;0.97;;;;;;;;;;5075967;28;20299;-29
2023/04/28 14:08:22;;;;;;;0.60;0.60;;;;;;;;;;5073776;28;20213;-28
2023/04/28 14:10:53;;;;;;;1.10;0.80;;;;;;;;;;5073817;28;20204;-31
2023/04/28 14:13:28;;;;;;;0.70;0.70;;;;;;;;;;5060811;28;20563;-28
2023/04/28 14:15:56;;;;;;;0.77;0.50;;;;;;;;;;5061987;28;20581;-28
2023/04/28 14:18:23;;;;;;;0.53;0.53;;;;;;;;;;5060013;28;20260;-29
2023/04/28 14:20:52;;;;;;;1.43;0.50;;;;;;;;;;5072619;28;20197;-26
2023/04/28 14:23:20;;;;;;;0.57;0.57;;;;;;;;;;5073253;28;20286;-29
2023/04/28 14:25:48;;;;;;;0.70;0.70;;;;;;;;;;5072254;28;20209;-29
2023/04/28 14:28:18;;;;;;;0.50;0.47;;;;;;;;;;5060453;28;20666;-28
2023/04/28 14:30:45;;;;;;;0.60;0.60;;;;;;;;;;5071941;28;20197;-25
2023/04/28 14:33:14;;;;;;;0.70;0.50;;;;;;;;;;5070313;28;20221;-28
2023/04/28 14:35:41;;;;;;;2.80;0.70;;;;;;;;;;5060789;28;20650;-28
2023/04/28 14:38:09;;;;;;;1.07;0.70;;;;;;;;;;5074265;28;20197;-30
2023/04/28 14:40:38;;;;;;;0.60;0.60;;;;;;;;;;5073093;28;20202;-29
2023/04/28 14:43:08;;;;;;;4.37;0.77;;;;;;;;;;5070779;28;20237;-28
2023/04/28 14:45:44;;;;;;;3.73;0.70;;;;;;;;;;5064935;28;20193;-29
2023/04/28 14:48:17;;;;;;;1.80;0.70;;;;;;;;;;5064674;28;20250;-28
2023/04/28 14:50:51;;;;;;;2.10;0.40;;;;;;;;;;5060849;28;20255;-31
2023/04/28 14:53:20;;;;;;;1.17;0.50;;;;;;;;;;5165303;22;20240;-34
2023/04/28 14:55:53;;;;;;;0.60;0.60;;;;;;;;;;5073079;28;20306;-34
2023/04/28 14:58:21;;;;;;;0.57;0.57;;;;;;;;;;5057706;28;20202;-40
2023/04/28 15:00:53;;;;;;;0.50;0.50;;;;;;;;;;5066817;28;20231;-36
2023/04/28 15:03:25;;;;;;;0.57;0.57;;;;;;;;;;5061344;28;20318;-37
2023/04/28 15:05:56;;;;;;;1.70;0.60;;;;;;;;;;5041224;28;20580;-36
2023/04/28 15:08:24;;;;;;;0.50;0.50;;;;;;;;;;5036729;28;20203;-36
2023/04/28 15:10:52;;;;;;;0.70;0.70;;;;;;;;;;5043124;28;20230;-35
2023/04/28 15:13:21;;;;;;;0.77;0.77;;;;;;;;;;5050206;28;20316;-36
2023/04/28 15:15:50;;;;;;;3.20;0.50;;;;;;;;;;5051036;28;20214;-40
2023/04/28 15:18:21;;;;;;;0.47;0.47;;;;;;;;;;5041976;28;20210;-40